sensor_id;sensor_type;location;lat;lon;timestamp;temperature;humidity
6443;DHT22;3254;47.372;8.512;2023-05-07T00:02:11;13.40;8.00
6443;DHT22;3254;47.372;8.512;2023-05-07T00:04:36;13.40;9.30
6443;DHT22;3254;47.372;8.512;2023-05-07T00:07:04;13.40;10.50
6443;DHT22;3254;47.372;8.512;2023-05-07T00:09:30;13.40;11.00
6443;DHT22;3254;47.372;8.512;2023-05-07T00:11:56;13.40;11.80
6443;DHT22;3254;47.372;8.512;2023-05-07T00:14:22;13.30;11.80
6443;DHT22;3254;47.372;8.512;2023-05-07T00:16:47;13.20;13.80
6443;DHT22;3254;47.372;8.512;2023-05-07T00:19:13;13.20;16.20
6443;DHT22;3254;47.372;8.512;2023-05-07T00:21:38;13.10;18.10
6443;DHT22;3254;47.372;8.512;2023-05-07T00:24:07;13.00;20.80
6443;DHT22;3254;47.372;8.512;2023-05-07T00:26:32;13.00;24.00
6443;DHT22;3254;47.372;8.512;2023-05-07T00:28:59;13.00;24.60
6443;DHT22;3254;47.372;8.512;2023-05-07T00:31:25;13.00;26.90
6443;DHT22;3254;47.372;8.512;2023-05-07T00:33:50;13.00;27.80
6443;DHT22;3254;47.372;8.512;2023-05-07T00:36:16;13.00;27.20
6443;DHT22;3254;47.372;8.512;2023-05-07T00:38:41;13.00;26.90
6443;DHT22;3254;47.372;8.512;2023-05-07T00:41:07;13.00;26.10
6443;DHT22;3254;47.372;8.512;2023-05-07T00:43:33;13.00;24.60
6443;DHT22;3254;47.372;8.512;2023-05-07T00:45:58;12.80;24.90
6443;DHT22;3254;47.372;8.512;2023-05-07T00:48:25;12.70;26.50
6443;DHT22;3254;47.372;8.512;2023-05-07T00:50:51;12.60;29.90
6443;DHT22;3254;47.372;8.512;2023-05-07T00:53:17;12.60;30.60
6443;DHT22;3254;47.372;8.512;2023-05-07T00:55:43;12.60;33.80
6443;DHT22;3254;47.372;8.512;2023-05-07T00:58:08;12.50;35.40
6443;DHT22;3254;47.372;8.512;2023-05-07T01:00:35;12.50;39.10
6443;DHT22;3254;47.372;8.512;2023-05-07T01:03:02;12.60;40.50
6443;DHT22;3254;47.372;8.512;2023-05-07T01:05:28;12.70;38.80
6443;DHT22;3254;47.372;8.512;2023-05-07T01:07:57;12.80;36.60
6443;DHT22;3254;47.372;8.512;2023-05-07T01:10:24;12.70;34.60
6443;DHT22;3254;47.372;8.512;2023-05-07T01:12:50;12.70;33.80
6443;DHT22;3254;47.372;8.512;2023-05-07T01:15:17;12.70;32.40
6443;DHT22;3254;47.372;8.512;2023-05-07T01:17:43;12.50;33.00
6443;DHT22;3254;47.372;8.512;2023-05-07T01:20:10;12.40;33.70
6443;DHT22;3254;47.372;8.512;2023-05-07T01:22:38;12.30;36.50
6443;DHT22;3254;47.372;8.512;2023-05-07T01:25:04;12.20;42.20
6443;DHT22;3254;47.372;8.512;2023-05-07T01:27:30;12.20;44.40
6443;DHT22;3254;47.372;8.512;2023-05-07T01:29:57;12.30;44.80
6443;DHT22;3254;47.372;8.512;2023-05-07T01:32:30;12.30;40.20
6443;DHT22;3254;47.372;8.512;2023-05-07T01:34:58;12.30;39.60
6443;DHT22;3254;47.372;8.512;2023-05-07T01:37:25;12.20;38.70
6443;DHT22;3254;47.372;8.512;2023-05-07T01:39:53;12.20;39.30
6443;DHT22;3254;47.372;8.512;2023-05-07T01:42:20;12.20;39.60
6443;DHT22;3254;47.372;8.512;2023-05-07T01:44:46;12.30;37.80
6443;DHT22;3254;47.372;8.512;2023-05-07T01:47:13;12.30;37.70
6443;DHT22;3254;47.372;8.512;2023-05-07T01:49:39;12.20;37.00
6443;DHT22;3254;47.372;8.512;2023-05-07T01:52:06;12.20;34.90
6443;DHT22;3254;47.372;8.512;2023-05-07T01:54:31;12.10;34.40
6443;DHT22;3254;47.372;8.512;2023-05-07T01:56:57;12.10;36.50
6443;DHT22;3254;47.372;8.512;2023-05-07T01:59:22;12.10;38.10
6443;DHT22;3254;47.372;8.512;2023-05-07T02:01:48;12.20;38.00
6443;DHT22;3254;47.372;8.512;2023-05-07T02:04:14;12.20;36.30
6443;DHT22;3254;47.372;8.512;2023-05-07T02:06:40;12.10;36.50
6443;DHT22;3254;47.372;8.512;2023-05-07T02:09:06;12.10;36.90
6443;DHT22;3254;47.372;8.512;2023-05-07T02:11:32;12.10;38.00
6443;DHT22;3254;47.372;8.512;2023-05-07T02:13:58;12.00;38.60
6443;DHT22;3254;47.372;8.512;2023-05-07T02:16:25;11.90;41.10
6443;DHT22;3254;47.372;8.512;2023-05-07T02:18:50;11.90;44.50
6443;DHT22;3254;47.372;8.512;2023-05-07T02:21:17;11.80;44.90
6443;DHT22;3254;47.372;8.512;2023-05-07T02:23:43;11.70;46.70
6443;DHT22;3254;47.372;8.512;2023-05-07T02:26:10;11.80;49.60
6443;DHT22;3254;47.372;8.512;2023-05-07T02:28:36;11.80;49.30
6443;DHT22;3254;47.372;8.512;2023-05-07T02:31:03;11.80;49.50
6443;DHT22;3254;47.372;8.512;2023-05-07T02:33:29;11.70;50.40
6443;DHT22;3254;47.372;8.512;2023-05-07T02:35:55;11.70;50.80
6443;DHT22;3254;47.372;8.512;2023-05-07T02:38:20;11.60;51.60
6443;DHT22;3254;47.372;8.512;2023-05-07T02:40:46;11.40;55.00
6443;DHT22;3254;47.372;8.512;2023-05-07T02:43:12;11.50;60.60
6443;DHT22;3254;47.372;8.512;2023-05-07T02:45:38;11.50;64.10
6443;DHT22;3254;47.372;8.512;2023-05-07T02:48:04;11.50;64.20
6443;DHT22;3254;47.372;8.512;2023-05-07T02:50:30;11.50;64.60
6443;DHT22;3254;47.372;8.512;2023-05-07T02:52:58;11.50;65.80
6443;DHT22;3254;47.372;8.512;2023-05-07T02:55:23;11.50;63.70
6443;DHT22;3254;47.372;8.512;2023-05-07T02:57:51;11.40;63.50
6443;DHT22;3254;47.372;8.512;2023-05-07T03:00:18;11.20;66.50
6443;DHT22;3254;47.372;8.512;2023-05-07T03:02:44;11.10;73.20
6443;DHT22;3254;47.372;8.512;2023-05-07T03:05:10;11.10;81.40
6443;DHT22;3254;47.372;8.512;2023-05-07T03:07:36;11.30;81.60
6443;DHT22;3254;47.372;8.512;2023-05-07T03:10:04;11.20;76.30
6443;DHT22;3254;47.372;8.512;2023-05-07T03:12:31;11.00;76.00
6443;DHT22;3254;47.372;8.512;2023-05-07T03:14:57;10.90;80.50
6443;DHT22;3254;47.372;8.512;2023-05-07T03:17:22;10.90;87.50
6443;DHT22;3254;47.372;8.512;2023-05-07T03:19:48;11.00;92.00
6443;DHT22;3254;47.372;8.512;2023-05-07T03:22:15;11.10;90.70
6443;DHT22;3254;47.372;8.512;2023-05-07T03:24:41;11.20;87.70
6443;DHT22;3254;47.372;8.512;2023-05-07T03:27:07;11.10;81.90
6443;DHT22;3254;47.372;8.512;2023-05-07T03:29:34;11.10;81.60
6443;DHT22;3254;47.372;8.512;2023-05-07T03:31:59;11.10;84.70
6443;DHT22;3254;47.372;8.512;2023-05-07T03:34:25;11.00;87.00
6443;DHT22;3254;47.372;8.512;2023-05-07T03:36:50;11.00;91.10
6443;DHT22;3254;47.372;8.512;2023-05-07T03:39:18;11.00;91.50
6443;DHT22;3254;47.372;8.512;2023-05-07T03:41:43;11.10;93.10
6443;DHT22;3254;47.372;8.512;2023-05-07T03:44:10;11.00;92.20
6443;DHT22;3254;47.372;8.512;2023-05-07T03:46:35;11.00;94.00
6443;DHT22;3254;47.372;8.512;2023-05-07T03:49:01;11.10;95.10
6443;DHT22;3254;47.372;8.512;2023-05-07T03:51:30;11.20;94.10
6443;DHT22;3254;47.372;8.512;2023-05-07T03:53:55;11.10;92.00
6443;DHT22;3254;47.372;8.512;2023-05-07T03:56:22;11.10;91.90
6443;DHT22;3254;47.372;8.512;2023-05-07T03:58:48;11.00;92.20
6443;DHT22;3254;47.372;8.512;2023-05-07T04:01:15;10.90;94.50
6443;DHT22;3254;47.372;8.512;2023-05-07T04:03:40;10.90;95.90
6443;DHT22;3254;47.372;8.512;2023-05-07T04:06:06;10.90;97.40
6443;DHT22;3254;47.372;8.512;2023-05-07T04:08:35;10.90;97.70
6443;DHT22;3254;47.372;8.512;2023-05-07T04:11:01;10.90;96.20
6443;DHT22;3254;47.372;8.512;2023-05-07T04:13:29;10.90;97.50
6443;DHT22;3254;47.372;8.512;2023-05-07T04:15:55;10.90;99.50
6443;DHT22;3254;47.372;8.512;2023-05-07T04:18:21;10.90;99.00
6443;DHT22;3254;47.372;8.512;2023-05-07T04:20:48;11.00;99.90
6443;DHT22;3254;47.372;8.512;2023-05-07T04:23:15;11.10;99.10
6443;DHT22;3254;47.372;8.512;2023-05-07T04:25:40;11.00;98.00
6443;DHT22;3254;47.372;8.512;2023-05-07T04:28:07;11.10;98.30
6443;DHT22;3254;47.372;8.512;2023-05-07T04:30:34;11.10;96.70
6443;DHT22;3254;47.372;8.512;2023-05-07T04:33:00;11.20;95.80
6443;DHT22;3254;47.372;8.512;2023-05-07T04:35:32;11.30;95.50
6443;DHT22;3254;47.372;8.512;2023-05-07T04:37:58;11.40;95.20
6443;DHT22;3254;47.372;8.512;2023-05-07T04:40:23;11.50;92.90
6443;DHT22;3254;47.372;8.512;2023-05-07T04:42:50;11.60;86.60
6443;DHT22;3254;47.372;8.512;2023-05-07T04:45:16;11.70;82.40
6443;DHT22;3254;47.372;8.512;2023-05-07T04:47:42;11.70;82.00
6443;DHT22;3254;47.372;8.512;2023-05-07T04:50:08;11.90;74.10
6443;DHT22;3254;47.372;8.512;2023-05-07T04:52:34;11.90;72.70
6443;DHT22;3254;47.372;8.512;2023-05-07T04:55:04;12.00;71.80
6443;DHT22;3254;47.372;8.512;2023-05-07T04:57:32;12.00;69.20
6443;DHT22;3254;47.372;8.512;2023-05-07T04:59:58;12.00;67.50
6443;DHT22;3254;47.372;8.512;2023-05-07T05:02:25;12.10;63.90
6443;DHT22;3254;47.372;8.512;2023-05-07T05:04:54;12.10;59.10
6443;DHT22;3254;47.372;8.512;2023-05-07T05:07:20;12.10;57.80
6443;DHT22;3254;47.372;8.512;2023-05-07T05:09:47;12.10;56.20
6443;DHT22;3254;47.372;8.512;2023-05-07T05:12:13;12.10;56.30
6443;DHT22;3254;47.372;8.512;2023-05-07T05:14:39;12.20;55.50
6443;DHT22;3254;47.372;8.512;2023-05-07T05:17:06;12.20;53.50
6443;DHT22;3254;47.372;8.512;2023-05-07T05:19:34;12.20;53.40
6443;DHT22;3254;47.372;8.512;2023-05-07T05:22:00;12.30;53.20
6443;DHT22;3254;47.372;8.512;2023-05-07T05:24:26;12.40;51.50
6443;DHT22;3254;47.372;8.512;2023-05-07T05:26:55;12.40;50.20
6443;DHT22;3254;47.372;8.512;2023-05-07T05:29:21;12.60;46.40
6443;DHT22;3254;47.372;8.512;2023-05-07T05:31:46;12.60;43.80
6443;DHT22;3254;47.372;8.512;2023-05-07T05:34:12;12.70;40.10
6443;DHT22;3254;47.372;8.512;2023-05-07T05:36:38;12.80;37.70
6443;DHT22;3254;47.372;8.512;2023-05-07T05:39:04;12.90;35.70
6443;DHT22;3254;47.372;8.512;2023-05-07T05:41:31;12.90;33.80
6443;DHT22;3254;47.372;8.512;2023-05-07T05:43:57;12.90;31.90
6443;DHT22;3254;47.372;8.512;2023-05-07T05:46:22;12.90;31.70
6443;DHT22;3254;47.372;8.512;2023-05-07T05:48:48;12.90;30.90
6443;DHT22;3254;47.372;8.512;2023-05-07T05:51:14;13.00;30.50
6443;DHT22;3254;47.372;8.512;2023-05-07T05:53:39;13.00;28.90
6443;DHT22;3254;47.372;8.512;2023-05-07T05:56:05;13.00;28.30
6443;DHT22;3254;47.372;8.512;2023-05-07T05:58:33;13.10;28.50
6443;DHT22;3254;47.372;8.512;2023-05-07T06:01:00;13.20;27.80
6443;DHT22;3254;47.372;8.512;2023-05-07T06:03:27;13.30;26.10
6443;DHT22;3254;47.372;8.512;2023-05-07T06:05:54;13.40;24.80
6443;DHT22;3254;47.372;8.512;2023-05-07T06:08:21;13.40;23.30
6443;DHT22;3254;47.372;8.512;2023-05-07T06:10:49;13.50;21.90
6443;DHT22;3254;47.372;8.512;2023-05-07T06:13:17;13.60;20.90
6443;DHT22;3254;47.372;8.512;2023-05-07T06:15:46;13.80;18.00
6443;DHT22;3254;47.372;8.512;2023-05-07T06:18:17;13.90;14.80
6443;DHT22;3254;47.372;8.512;2023-05-07T06:20:43;14.10;12.90
6443;DHT22;3254;47.372;8.512;2023-05-07T06:23:09;14.20;11.20
6443;DHT22;3254;47.372;8.512;2023-05-07T06:25:34;14.40;6.90
6443;DHT22;3254;47.372;8.512;2023-05-07T06:28:00;14.50;4.10
6443;DHT22;3254;47.372;8.512;2023-05-07T06:30:28;14.50;2.20
6443;DHT22;3254;47.372;8.512;2023-05-07T06:32:53;14.50;1.00
6443;DHT22;3254;47.372;8.512;2023-05-07T06:35:19;14.60;1.00
6443;DHT22;3254;47.372;8.512;2023-05-07T06:37:44;14.70;1.00
6443;DHT22;3254;47.372;8.512;2023-05-07T06:40:11;14.70;1.00
6443;DHT22;3254;47.372;8.512;2023-05-07T06:42:37;14.80;1.00
6443;DHT22;3254;47.372;8.512;2023-05-07T06:45:03;14.90;1.00
6443;DHT22;3254;47.372;8.512;2023-05-07T06:47:29;15.00;1.00
6443;DHT22;3254;47.372;8.512;2023-05-07T06:49:55;15.10;1.00
6443;DHT22;3254;47.372;8.512;2023-05-07T06:52:21;15.20;1.00
6443;DHT22;3254;47.372;8.512;2023-05-07T06:54:46;15.20;1.00
6443;DHT22;3254;47.372;8.512;2023-05-07T06:57:12;15.30;1.00
6443;DHT22;3254;47.372;8.512;2023-05-07T06:59:37;15.40;1.00
6443;DHT22;3254;47.372;8.512;2023-05-07T07:02:05;15.60;1.00
6443;DHT22;3254;47.372;8.512;2023-05-07T07:04:32;15.80;1.00
6443;DHT22;3254;47.372;8.512;2023-05-07T07:06:57;16.00;1.00
6443;DHT22;3254;47.372;8.512;2023-05-07T07:09:23;16.20;1.00
6443;DHT22;3254;47.372;8.512;2023-05-07T07:11:48;16.40;1.00
6443;DHT22;3254;47.372;8.512;2023-05-07T07:14:30;16.50;1.00
6443;DHT22;3254;47.372;8.512;2023-05-07T07:16:56;16.80;1.00
6443;DHT22;3254;47.372;8.512;2023-05-07T07:19:21;17.20;1.00
6443;DHT22;3254;47.372;8.512;2023-05-07T07:21:47;17.70;1.00
6443;DHT22;3254;47.372;8.512;2023-05-07T07:24:13;18.60;1.00
6443;DHT22;3254;47.372;8.512;2023-05-07T07:26:44;19.10;1.00
6443;DHT22;3254;47.372;8.512;2023-05-07T07:29:10;19.90;1.00
6443;DHT22;3254;47.372;8.512;2023-05-07T07:31:36;20.70;1.00
6443;DHT22;3254;47.372;8.512;2023-05-07T07:34:01;21.30;1.00
6443;DHT22;3254;47.372;8.512;2023-05-07T07:36:27;21.90;1.00
6443;DHT22;3254;47.372;8.512;2023-05-07T07:38:53;22.10;1.00
6443;DHT22;3254;47.372;8.512;2023-05-07T07:41:19;22.70;1.00
6443;DHT22;3254;47.372;8.512;2023-05-07T07:43:45;22.70;1.00
6443;DHT22;3254;47.372;8.512;2023-05-07T07:46:13;22.50;1.00
6443;DHT22;3254;47.372;8.512;2023-05-07T07:48:38;22.30;1.00
6443;DHT22;3254;47.372;8.512;2023-05-07T07:51:04;22.40;1.00
6443;DHT22;3254;47.372;8.512;2023-05-07T07:53:30;22.30;1.00
6443;DHT22;3254;47.372;8.512;2023-05-07T07:55:56;21.90;1.00
6443;DHT22;3254;47.372;8.512;2023-05-07T07:58:21;21.70;1.00
6443;DHT22;3254;47.372;8.512;2023-05-07T08:00:50;21.40;1.00
6443;DHT22;3254;47.372;8.512;2023-05-07T08:03:18;21.30;1.00
6443;DHT22;3254;47.372;8.512;2023-05-07T08:05:45;21.10;1.00
6443;DHT22;3254;47.372;8.512;2023-05-07T08:08:10;21.30;1.00
6443;DHT22;3254;47.372;8.512;2023-05-07T08:10:36;21.60;1.00
6443;DHT22;3254;47.372;8.512;2023-05-07T08:13:03;21.30;1.00
6443;DHT22;3254;47.372;8.512;2023-05-07T08:15:31;21.70;1.00
6443;DHT22;3254;47.372;8.512;2023-05-07T08:17:57;21.90;1.00
6443;DHT22;3254;47.372;8.512;2023-05-07T08:20:25;21.90;1.00
6443;DHT22;3254;47.372;8.512;2023-05-07T08:22:51;21.90;1.00
6443;DHT22;3254;47.372;8.512;2023-05-07T08:25:18;21.60;1.00
6443;DHT22;3254;47.372;8.512;2023-05-07T08:27:45;21.70;1.00
6443;DHT22;3254;47.372;8.512;2023-05-07T08:30:11;21.80;1.00
6443;DHT22;3254;47.372;8.512;2023-05-07T08:32:37;22.00;1.00
6443;DHT22;3254;47.372;8.512;2023-05-07T08:35:04;21.90;1.00
6443;DHT22;3254;47.372;8.512;2023-05-07T08:37:30;22.30;1.00
6443;DHT22;3254;47.372;8.512;2023-05-07T08:39:59;22.80;1.00
6443;DHT22;3254;47.372;8.512;2023-05-07T08:42:27;22.90;1.00
6443;DHT22;3254;47.372;8.512;2023-05-07T08:44:57;22.50;1.00
6443;DHT22;3254;47.372;8.512;2023-05-07T08:47:29;22.40;1.00
6443;DHT22;3254;47.372;8.512;2023-05-07T08:49:59;22.40;1.00
6443;DHT22;3254;47.372;8.512;2023-05-07T08:52:29;22.90;1.00
6443;DHT22;3254;47.372;8.512;2023-05-07T08:54:55;23.60;1.00
6443;DHT22;3254;47.372;8.512;2023-05-07T08:57:23;24.60;1.00
6443;DHT22;3254;47.372;8.512;2023-05-07T08:59:49;25.50;1.00
6443;DHT22;3254;47.372;8.512;2023-05-07T09:02:15;25.90;1.00
6443;DHT22;3254;47.372;8.512;2023-05-07T09:04:44;26.40;1.00
6443;DHT22;3254;47.372;8.512;2023-05-07T09:07:10;26.20;1.00
6443;DHT22;3254;47.372;8.512;2023-05-07T09:09:38;25.70;1.00
6443;DHT22;3254;47.372;8.512;2023-05-07T09:12:04;25.50;1.00
6443;DHT22;3254;47.372;8.512;2023-05-07T09:14:34;25.30;1.00
6443;DHT22;3254;47.372;8.512;2023-05-07T09:17:02;25.60;1.00
6443;DHT22;3254;47.372;8.512;2023-05-07T09:19:30;26.20;1.00
6443;DHT22;3254;47.372;8.512;2023-05-07T09:22:03;26.60;1.00
6443;DHT22;3254;47.372;8.512;2023-05-07T09:24:32;26.80;1.00
6443;DHT22;3254;47.372;8.512;2023-05-07T09:27:03;26.80;1.00
6443;DHT22;3254;47.372;8.512;2023-05-07T09:29:29;26.20;1.00
6443;DHT22;3254;47.372;8.512;2023-05-07T09:32:05;25.50;1.00
6443;DHT22;3254;47.372;8.512;2023-05-07T09:34:31;25.10;1.00
6443;DHT22;3254;47.372;8.512;2023-05-07T09:37:02;24.70;1.00
6443;DHT22;3254;47.372;8.512;2023-05-07T09:39:49;24.60;1.00
6443;DHT22;3254;47.372;8.512;2023-05-07T09:42:15;24.20;1.00
6443;DHT22;3254;47.372;8.512;2023-05-07T09:44:43;24.50;1.00
6443;DHT22;3254;47.372;8.512;2023-05-07T09:47:10;24.10;1.00
6443;DHT22;3254;47.372;8.512;2023-05-07T09:49:38;24.00;1.00
6443;DHT22;3254;47.372;8.512;2023-05-07T09:52:06;24.30;1.00
6443;DHT22;3254;47.372;8.512;2023-05-07T09:54:35;24.40;1.00
6443;DHT22;3254;47.372;8.512;2023-05-07T09:57:05;24.70;1.00
6443;DHT22;3254;47.372;8.512;2023-05-07T09:59:32;24.90;1.00
6443;DHT22;3254;47.372;8.512;2023-05-07T10:01:59;25.30;1.00
6443;DHT22;3254;47.372;8.512;2023-05-07T10:04:26;25.50;1.00
6443;DHT22;3254;47.372;8.512;2023-05-07T10:06:52;25.80;1.00
6443;DHT22;3254;47.372;8.512;2023-05-07T10:09:19;26.40;1.00
6443;DHT22;3254;47.372;8.512;2023-05-07T10:11:49;26.40;1.00
6443;DHT22;3254;47.372;8.512;2023-05-07T10:14:17;26.20;1.00
6443;DHT22;3254;47.372;8.512;2023-05-07T10:16:46;25.90;1.00
6443;DHT22;3254;47.372;8.512;2023-05-07T10:19:12;25.40;1.00
6443;DHT22;3254;47.372;8.512;2023-05-07T10:21:51;25.60;1.00
6443;DHT22;3254;47.372;8.512;2023-05-07T10:24:27;25.50;1.00
6443;DHT22;3254;47.372;8.512;2023-05-07T10:26:56;25.20;1.00
6443;DHT22;3254;47.372;8.512;2023-05-07T10:32:50;24.80;1.00
6443;DHT22;3254;47.372;8.512;2023-05-07T10:35:22;24.50;1.00
6443;DHT22;3254;47.372;8.512;2023-05-07T10:37:50;23.90;1.00
6443;DHT22;3254;47.372;8.512;2023-05-07T10:40:16;24.10;1.00
6443;DHT22;3254;47.372;8.512;2023-05-07T10:43:05;24.00;1.00
6443;DHT22;3254;47.372;8.512;2023-05-07T10:45:31;24.00;1.00
6443;DHT22;3254;47.372;8.512;2023-05-07T10:48:10;24.00;1.00
6443;DHT22;3254;47.372;8.512;2023-05-07T10:50:37;23.80;1.00
6443;DHT22;3254;47.372;8.512;2023-05-07T10:55:42;23.90;1.00
6443;DHT22;3254;47.372;8.512;2023-05-07T10:58:23;23.70;1.00
6443;DHT22;3254;47.372;8.512;2023-05-07T11:00:59;24.00;1.00
6443;DHT22;3254;47.372;8.512;2023-05-07T11:03:26;24.10;1.00
6443;DHT22;3254;47.372;8.512;2023-05-07T11:06:24;24.40;1.00
6443;DHT22;3254;47.372;8.512;2023-05-07T11:08:57;25.10;1.00
6443;DHT22;3254;47.372;8.512;2023-05-07T11:11:48;25.80;1.00
6443;DHT22;3254;47.372;8.512;2023-05-07T11:14:43;25.80;1.00
6443;DHT22;3254;47.372;8.512;2023-05-07T11:17:09;26.60;1.00
6443;DHT22;3254;47.372;8.512;2023-05-07T11:19:54;27.30;1.00
6443;DHT22;3254;47.372;8.512;2023-05-07T11:25:06;29.00;1.00
6443;DHT22;3254;47.372;8.512;2023-05-07T11:27:33;29.70;1.00
6443;DHT22;3254;47.372;8.512;2023-05-07T11:29:58;30.50;1.00
6443;DHT22;3254;47.372;8.512;2023-05-07T11:32:31;30.70;1.00
6443;DHT22;3254;47.372;8.512;2023-05-07T11:34:59;31.00;1.00
6443;DHT22;3254;47.372;8.512;2023-05-07T11:37:26;30.70;1.00
6443;DHT22;3254;47.372;8.512;2023-05-07T11:40:07;29.50;1.00
6443;DHT22;3254;47.372;8.512;2023-05-07T11:42:35;29.40;1.00
6443;DHT22;3254;47.372;8.512;2023-05-07T11:45:03;29.80;1.00
6443;DHT22;3254;47.372;8.512;2023-05-07T11:47:32;30.10;1.00
6443;DHT22;3254;47.372;8.512;2023-05-07T11:50:07;30.50;1.00
6443;DHT22;3254;47.372;8.512;2023-05-07T11:52:34;30.80;1.00
6443;DHT22;3254;47.372;8.512;2023-05-07T11:55:04;30.50;1.00
6443;DHT22;3254;47.372;8.512;2023-05-07T11:57:30;30.60;1.00
6443;DHT22;3254;47.372;8.512;2023-05-07T11:59:59;30.50;1.00
6443;DHT22;3254;47.372;8.512;2023-05-07T12:02:26;30.50;1.00
6443;DHT22;3254;47.372;8.512;2023-05-07T12:04:52;30.40;1.00
6443;DHT22;3254;47.372;8.512;2023-05-07T12:07:19;30.50;1.00
6443;DHT22;3254;47.372;8.512;2023-05-07T12:09:45;30.40;1.00
6443;DHT22;3254;47.372;8.512;2023-05-07T12:12:11;30.10;1.00
6443;DHT22;3254;47.372;8.512;2023-05-07T12:14:40;30.00;1.00
6443;DHT22;3254;47.372;8.512;2023-05-07T12:17:07;30.10;1.00
6443;DHT22;3254;47.372;8.512;2023-05-07T12:19:34;30.30;1.00
6443;DHT22;3254;47.372;8.512;2023-05-07T12:22:02;30.40;1.00
6443;DHT22;3254;47.372;8.512;2023-05-07T12:24:28;30.30;1.00
6443;DHT22;3254;47.372;8.512;2023-05-07T12:26:53;30.30;1.00
6443;DHT22;3254;47.372;8.512;2023-05-07T12:29:23;30.60;1.00
6443;DHT22;3254;47.372;8.512;2023-05-07T12:31:50;30.60;1.00
6443;DHT22;3254;47.372;8.512;2023-05-07T12:34:20;30.30;1.00
6443;DHT22;3254;47.372;8.512;2023-05-07T12:36:57;29.80;1.00
6443;DHT22;3254;47.372;8.512;2023-05-07T12:39:22;29.80;1.00
6443;DHT22;3254;47.372;8.512;2023-05-07T12:41:55;29.50;1.00
6443;DHT22;3254;47.372;8.512;2023-05-07T12:44:30;29.40;1.00
6443;DHT22;3254;47.372;8.512;2023-05-07T12:47:01;29.60;1.00
6443;DHT22;3254;47.372;8.512;2023-05-07T12:49:26;29.00;1.00
6443;DHT22;3254;47.372;8.512;2023-05-07T12:51:53;28.40;1.00
6443;DHT22;3254;47.372;8.512;2023-05-07T12:54:37;27.80;1.00
6443;DHT22;3254;47.372;8.512;2023-05-07T12:57:07;27.20;1.00
6443;DHT22;3254;47.372;8.512;2023-05-07T12:59:39;26.80;1.00
6443;DHT22;3254;47.372;8.512;2023-05-07T13:02:07;26.30;1.00
6443;DHT22;3254;47.372;8.512;2023-05-07T13:04:36;26.10;1.00
6443;DHT22;3254;47.372;8.512;2023-05-07T13:07:05;26.60;1.00
6443;DHT22;3254;47.372;8.512;2023-05-07T13:09:31;27.10;1.00
6443;DHT22;3254;47.372;8.512;2023-05-07T13:11:58;26.90;1.00
6443;DHT22;3254;47.372;8.512;2023-05-07T13:19:32;28.40;1.00
6443;DHT22;3254;47.372;8.512;2023-05-07T13:21:58;28.00;1.00
6443;DHT22;3254;47.372;8.512;2023-05-07T13:24:25;27.60;1.00
6443;DHT22;3254;47.372;8.512;2023-05-07T13:26:51;27.60;1.00
6443;DHT22;3254;47.372;8.512;2023-05-07T13:29:18;27.90;1.00
6443;DHT22;3254;47.372;8.512;2023-05-07T13:31:45;28.60;1.00
6443;DHT22;3254;47.372;8.512;2023-05-07T13:34:10;28.60;1.00
6443;DHT22;3254;47.372;8.512;2023-05-07T13:36:36;28.40;1.00
6443;DHT22;3254;47.372;8.512;2023-05-07T13:39:06;28.30;1.00
6443;DHT22;3254;47.372;8.512;2023-05-07T13:41:32;27.80;1.00
6443;DHT22;3254;47.372;8.512;2023-05-07T13:43:57;27.70;1.00
6443;DHT22;3254;47.372;8.512;2023-05-07T13:46:23;27.50;1.00
6443;DHT22;3254;47.372;8.512;2023-05-07T13:48:50;27.00;1.00
6443;DHT22;3254;47.372;8.512;2023-05-07T13:51:35;26.20;1.00
6443;DHT22;3254;47.372;8.512;2023-05-07T13:54:04;25.40;1.00
6443;DHT22;3254;47.372;8.512;2023-05-07T13:56:29;25.30;1.00
6443;DHT22;3254;47.372;8.512;2023-05-07T13:58:58;24.50;1.00
6443;DHT22;3254;47.372;8.512;2023-05-07T14:01:26;24.30;1.00
6443;DHT22;3254;47.372;8.512;2023-05-07T14:03:52;23.70;1.00
6443;DHT22;3254;47.372;8.512;2023-05-07T14:06:18;23.20;1.00
6443;DHT22;3254;47.372;8.512;2023-05-07T14:08:43;23.20;1.00
6443;DHT22;3254;47.372;8.512;2023-05-07T14:11:12;22.80;1.00
6443;DHT22;3254;47.372;8.512;2023-05-07T14:13:37;22.30;1.00
6443;DHT22;3254;47.372;8.512;2023-05-07T14:16:04;22.10;1.00
6443;DHT22;3254;47.372;8.512;2023-05-07T14:18:29;22.10;1.00
6443;DHT22;3254;47.372;8.512;2023-05-07T14:20:56;21.80;1.00
6443;DHT22;3254;47.372;8.512;2023-05-07T14:23:21;21.50;1.00
6443;DHT22;3254;47.372;8.512;2023-05-07T14:25:54;21.20;1.00
6443;DHT22;3254;47.372;8.512;2023-05-07T14:28:20;21.10;1.00
6443;DHT22;3254;47.372;8.512;2023-05-07T14:30:52;20.90;1.00
6443;DHT22;3254;47.372;8.512;2023-05-07T14:33:18;20.70;1.00
6443;DHT22;3254;47.372;8.512;2023-05-07T14:35:46;20.40;1.00
6443;DHT22;3254;47.372;8.512;2023-05-07T14:38:14;20.30;1.00
6443;DHT22;3254;47.372;8.512;2023-05-07T14:40:40;20.10;1.00
6443;DHT22;3254;47.372;8.512;2023-05-07T14:43:11;19.50;1.00
6443;DHT22;3254;47.372;8.512;2023-05-07T14:45:39;19.10;1.00
6443;DHT22;3254;47.372;8.512;2023-05-07T14:48:06;18.50;1.00
6443;DHT22;3254;47.372;8.512;2023-05-07T14:50:31;18.10;1.00
6443;DHT22;3254;47.372;8.512;2023-05-07T14:52:57;17.70;1.00
6443;DHT22;3254;47.372;8.512;2023-05-07T14:55:22;17.50;1.00
6443;DHT22;3254;47.372;8.512;2023-05-07T14:57:48;17.20;1.00
6443;DHT22;3254;47.372;8.512;2023-05-07T15:00:14;17.00;1.00
6443;DHT22;3254;47.372;8.512;2023-05-07T15:02:39;17.00;1.00
6443;DHT22;3254;47.372;8.512;2023-05-07T15:05:05;16.80;1.00
6443;DHT22;3254;47.372;8.512;2023-05-07T15:07:31;16.60;1.00
6443;DHT22;3254;47.372;8.512;2023-05-07T15:09:59;16.50;1.00
6443;DHT22;3254;47.372;8.512;2023-05-07T15:12:25;16.50;1.00
6443;DHT22;3254;47.372;8.512;2023-05-07T15:14:51;16.40;1.00
6443;DHT22;3254;47.372;8.512;2023-05-07T15:17:17;16.40;1.00
6443;DHT22;3254;47.372;8.512;2023-05-07T15:19:42;16.20;13.30
6443;DHT22;3254;47.372;8.512;2023-05-07T15:22:08;16.00;40.40
6443;DHT22;3254;47.372;8.512;2023-05-07T15:24:33;15.90;56.50
6443;DHT22;3254;47.372;8.512;2023-05-07T15:27:00;15.60;78.00
6443;DHT22;3254;47.372;8.512;2023-05-07T15:29:28;15.40;99.30
6443;DHT22;3254;47.372;8.512;2023-05-07T15:31:53;15.30;99.90
6443;DHT22;3254;47.372;8.512;2023-05-07T15:34:21;15.20;99.90
6443;DHT22;3254;47.372;8.512;2023-05-07T15:36:47;15.20;99.90
6443;DHT22;3254;47.372;8.512;2023-05-07T15:39:17;15.20;99.90
6443;DHT22;3254;47.372;8.512;2023-05-07T15:41:43;15.20;99.90
6443;DHT22;3254;47.372;8.512;2023-05-07T15:44:08;15.30;99.90
6443;DHT22;3254;47.372;8.512;2023-05-07T15:46:38;15.30;99.90
6443;DHT22;3254;47.372;8.512;2023-05-07T15:49:07;15.20;99.90
6443;DHT22;3254;47.372;8.512;2023-05-07T15:51:34;15.20;99.90
6443;DHT22;3254;47.372;8.512;2023-05-07T15:54:03;15.20;99.90
6443;DHT22;3254;47.372;8.512;2023-05-07T15:56:30;15.30;99.90
6443;DHT22;3254;47.372;8.512;2023-05-07T15:59:01;15.30;99.90
6443;DHT22;3254;47.372;8.512;2023-05-07T16:01:28;15.20;99.90
6443;DHT22;3254;47.372;8.512;2023-05-07T16:03:54;15.30;99.90
6443;DHT22;3254;47.372;8.512;2023-05-07T16:06:20;15.30;99.90
6443;DHT22;3254;47.372;8.512;2023-05-07T16:08:46;15.30;99.90
6443;DHT22;3254;47.372;8.512;2023-05-07T16:11:13;15.40;99.90
6443;DHT22;3254;47.372;8.512;2023-05-07T16:13:40;15.40;99.90
6443;DHT22;3254;47.372;8.512;2023-05-07T16:16:05;15.40;99.90
6443;DHT22;3254;47.372;8.512;2023-05-07T16:18:31;15.40;99.90
6443;DHT22;3254;47.372;8.512;2023-05-07T16:20:57;15.40;99.90
6443;DHT22;3254;47.372;8.512;2023-05-07T16:23:24;15.50;99.90
6443;DHT22;3254;47.372;8.512;2023-05-07T16:25:51;15.50;99.90